createdAt,value
2022-10-05T00:01:14.827Z,10.3
2022-10-05T00:11:15.649Z,10.2
2022-10-05T00:21:16.565Z,10.3
2022-10-05T00:31:17.530Z,10.3
2022-10-05T00:41:17.664Z,10.3
2022-10-05T00:51:18.046Z,10.4
2022-10-05T01:01:19.215Z,10.5
2022-10-05T01:11:19.493Z,10.5
2022-10-05T01:21:20.022Z,10.8
2022-10-05T01:31:20.960Z,11.4
2022-10-05T01:41:21.581Z,11.8
2022-10-05T01:51:22.581Z,12.1
2022-10-05T02:01:23.293Z,12.2
2022-10-05T02:11:23.445Z,12.3
2022-10-05T02:21:24.316Z,12.4
2022-10-05T02:31:24.830Z,12.5
2022-10-05T02:41:24.935Z,12.5
2022-10-05T02:51:25.818Z,12.6
2022-10-05T03:01:26.753Z,12.7
2022-10-05T03:11:27.114Z,12.7
2022-10-05T03:21:27.578Z,12.8
2022-10-05T03:31:28.664Z,12.8
2022-10-05T03:41:29.352Z,12.8
2022-10-05T03:51:29.899Z,12.8
2022-10-05T04:01:30.348Z,12.9
2022-10-05T04:11:31.341Z,12.8
2022-10-05T04:21:31.641Z,12.9
2022-10-05T04:31:31.914Z,12.9
2022-10-05T04:41:32.569Z,13
2022-10-05T04:51:32.932Z,13.2
2022-10-05T05:01:33.202Z,13.3
2022-10-05T05:11:33.561Z,13.3
2022-10-05T05:21:34.620Z,13.4
2022-10-05T05:31:35.667Z,13.4
2022-10-05T05:41:35.791Z,13.5
2022-10-05T05:51:36.543Z,13.6
2022-10-05T06:01:40.691Z,13.7
2022-10-05T06:11:37.761Z,13.8
2022-10-05T06:21:37.901Z,14
2022-10-05T06:31:38.987Z,14.1
2022-10-05T06:41:39.875Z,14.3
2022-10-05T06:51:40.008Z,14.5
2022-10-05T07:01:40.949Z,14.7
2022-10-05T07:11:41.697Z,14.8
2022-10-05T07:21:41.907Z,14.9
2022-10-05T07:31:42.342Z,14.9
2022-10-05T07:41:42.986Z,14.9
2022-10-05T07:51:43.581Z,14.9
2022-10-05T08:01:44.176Z,15
2022-10-05T08:11:44.729Z,15.1
2022-10-05T08:21:45.319Z,15.2
2022-10-05T08:31:46.133Z,15.3
2022-10-05T08:41:46.024Z,15.5
2022-10-05T08:51:46.306Z,15.6
2022-10-05T09:01:46.403Z,15.7
2022-10-05T09:11:47.484Z,15.8
2022-10-05T09:21:47.848Z,15.8
2022-10-05T09:31:48.885Z,15.9
2022-10-05T09:41:49.755Z,16.1
2022-10-05T09:51:50.242Z,16.2
2022-10-05T10:01:51.095Z,16.4
2022-10-05T10:11:51.770Z,16.6
2022-10-05T10:21:52.717Z,16.8
2022-10-05T10:31:52.927Z,16.9
2022-10-05T10:41:53.088Z,17
2022-10-05T10:51:54.005Z,17.1
2022-10-05T11:01:55.034Z,17.2
2022-10-05T11:11:55.805Z,17.2
2022-10-05T11:21:56.059Z,17.4
2022-10-05T11:31:56.211Z,17.6
2022-10-05T11:41:56.288Z,17.9
2022-10-05T11:51:56.553Z,18.2
2022-10-05T12:01:57.446Z,18.3
2022-10-05T12:11:58.121Z,18.5
2022-10-05T12:31:59.095Z,18.8
2022-10-05T12:41:59.952Z,19.2
2022-10-05T12:52:01.006Z,19.2
2022-10-05T13:02:01.521Z,19.2
2022-10-05T13:12:02.385Z,19.2
2022-10-05T13:22:02.851Z,19.4
2022-10-05T13:32:03.734Z,19.4
2022-10-05T13:42:03.868Z,19.5
2022-10-05T13:52:04.058Z,19.9
2022-10-05T14:02:04.583Z,20
2022-10-05T14:12:04.705Z,20.2
2022-10-05T14:22:05.293Z,20.4
2022-10-05T14:32:05.708Z,20.5
2022-10-05T14:42:06.001Z,20.6
2022-10-05T14:52:07.064Z,20.7
2022-10-05T15:02:07.702Z,20.8
2022-10-05T15:12:08.769Z,21.2
2022-10-05T15:22:09.729Z,21.4
2022-10-05T15:32:10.448Z,20.8
2022-10-05T15:52:11.690Z,20.3
2022-10-05T16:02:12.277Z,20.1
2022-10-05T16:12:12.790Z,20.2
2022-10-05T16:22:13.006Z,20.4
2022-10-05T16:32:13.299Z,20.2
2022-10-05T16:42:13.690Z,20
2022-10-05T16:52:14.127Z,19.8
2022-10-05T17:02:14.371Z,19.6
2022-10-05T17:12:15.065Z,19.5
2022-10-05T17:32:15.951Z,18.2
2022-10-05T17:42:16.730Z,18
2022-10-05T17:52:17.366Z,18
2022-10-05T18:02:17.556Z,17.9
2022-10-05T18:12:18.497Z,17.9
2022-10-05T18:22:18.915Z,17.9
2022-10-05T18:32:19.958Z,17.9
2022-10-05T18:42:20.236Z,17.9
2022-10-05T18:52:21.073Z,18.1
2022-10-05T19:02:21.892Z,18.2
2022-10-05T19:12:22.067Z,18.2
2022-10-05T19:22:22.384Z,18.2
2022-10-05T19:32:22.957Z,18.2
2022-10-05T19:42:23.583Z,18.2
2022-10-05T19:52:24.459Z,18.3
2022-10-05T20:02:25.433Z,18.3
2022-10-05T20:12:25.618Z,18.4
2022-10-05T20:22:26.242Z,18.5
2022-10-05T20:32:30.499Z,18.4
2022-10-05T20:42:27.707Z,18.4
2022-10-05T20:52:28.569Z,18.4
2022-10-05T21:02:29.495Z,18.4
2022-10-05T21:12:30.063Z,18.4
2022-10-05T21:22:30.738Z,18.5
2022-10-05T21:42:32.122Z,18.5
2022-10-05T21:52:33.081Z,18.3
2022-10-05T22:22:35.418Z,17.9
2022-10-05T22:32:35.828Z,17.8
2022-10-05T22:42:36.067Z,17.6
2022-10-05T22:52:36.853Z,17.2
2022-10-05T23:02:37.196Z,15.2
2022-10-05T23:12:37.854Z,14.3
2022-10-05T23:22:38.588Z,13.7
2022-10-05T23:32:39.437Z,13.4
2022-10-05T23:42:40.301Z,13.4
2022-10-05T23:52:40.820Z,13.4
